Accueil
METAR-TAF:

METAR-TAF

Aéroports :

Laupheim, Allemagne

latitude: 48-13N, longitude: 009-55E, altitude: 538 m

Observation

Le bulletin a été fait il y a 24 minutes, à 15:20 UTC
Vent 2 kt de nord
Température 25°C
Humidité 32%
Pression 1018 hPa
Visibilité 10 km ou plus
Quelques nuages à une hauteur de 6000 ft

METAR: ETHL 211520Z 36002KT 9999 FEW060 25/07 Q1018 BLU+

Heure: 17:44 (15:44 UTC)

Prévision

Le bulletin a été fait il y a 30 heures et 13 minutes, à 09:31 UTC
Prévision valable du 20 à 10 UTC au 20 à 17 UTC
Vent 3 kt de direction variable
Visibilité: 1030 m
Quelques nuages à une hauteur de 30000 ft

TAF: ETHL 200931Z 2010/2017 VRB03KT 9999 NSW FEW300 CANCEL 1030

Observations et prévisions météorologiques de plus de 4000 aéroports (messages METAR et TAF).

Les stations disponibles sont représentées par des disques jaunes et rouges sur la carte.

Passer la souris dessus pour voir le nom de la station.

Cliquer dessus pour voir les observations et prévisions météorologiques.

Pour changer de carte: cliquez sur les boutons verts avec une croix noire pour zoomer, sur le bouton vert avec un tiret pour effectuer un zoom arrière, ou sur les flèches vertes pour les cartes adjacentes.


METAR-TAF: